createdAt,value
2019-01-15T00:02:06.187Z,4.47
2019-01-15T00:04:32.926Z,4.80
2019-01-15T00:06:59.423Z,4.50
2019-01-15T00:09:25.949Z,4.20
2019-01-15T00:11:53.060Z,4.37
2019-01-15T00:14:19.620Z,4.17
2019-01-15T00:16:46.269Z,4.83
2019-01-15T00:19:12.957Z,4.30
2019-01-15T00:21:39.635Z,4.73
2019-01-15T00:24:06.115Z,4.87
2019-01-15T00:26:32.546Z,4.83
2019-01-15T00:28:59.060Z,4.73
2019-01-15T00:31:25.681Z,5.17
2019-01-15T00:33:52.218Z,5.33
2019-01-15T00:36:18.664Z,4.57
2019-01-15T00:38:45.340Z,4.73
2019-01-15T00:41:11.729Z,5.13
2019-01-15T00:43:38.158Z,4.73
2019-01-15T00:46:04.797Z,4.53
2019-01-15T00:48:31.501Z,5.37
2019-01-15T00:50:57.787Z,4.83
2019-01-15T00:53:24.217Z,4.70
2019-01-15T00:55:50.728Z,5.33
2019-01-15T00:58:17.165Z,5.57
2019-01-15T01:00:43.919Z,5.17
2019-01-15T01:03:10.493Z,4.97
2019-01-15T01:05:37.164Z,4.90
2019-01-15T01:08:03.748Z,4.93
2019-01-15T01:10:30.365Z,5.40
2019-01-15T01:12:56.770Z,5.27
2019-01-15T01:15:23.284Z,4.93
2019-01-15T01:17:49.896Z,5.70
2019-01-15T01:20:20.480Z,5.53
2019-01-15T01:22:47.274Z,4.80
2019-01-15T01:25:13.779Z,5.30
2019-01-15T01:27:40.161Z,4.87
2019-01-15T01:30:14.447Z,5.53
2019-01-15T01:32:40.975Z,5.10
2019-01-15T01:35:07.810Z,5.43
2019-01-15T01:37:34.633Z,5.63
2019-01-15T01:40:01.301Z,5.37
2019-01-15T01:42:29.625Z,5.03
2019-01-15T01:44:56.234Z,6.03
2019-01-15T01:47:22.760Z,6.07
2019-01-15T01:49:49.300Z,5.80
2019-01-15T01:52:15.737Z,6.40
2019-01-15T01:54:42.150Z,5.93
2019-01-15T01:57:08.531Z,5.93
2019-01-15T01:59:35.075Z,6.00
2019-01-15T02:02:01.604Z,5.60
2019-01-15T02:04:27.996Z,6.87
2019-01-15T02:06:54.536Z,6.23
2019-01-15T02:09:21.030Z,6.00
2019-01-15T02:11:47.606Z,6.67
2019-01-15T02:14:14.159Z,6.50
2019-01-15T02:16:40.794Z,6.53
2019-01-15T02:19:07.399Z,6.57
2019-01-15T02:21:33.665Z,6.90
2019-01-15T02:24:00.775Z,6.93
2019-01-15T02:26:27.265Z,7.20
2019-01-15T02:28:53.726Z,7.37
2019-01-15T02:31:20.135Z,7.50
2019-01-15T02:33:46.650Z,7.40
2019-01-15T02:36:13.010Z,7.43
2019-01-15T02:38:39.497Z,7.33
2019-01-15T02:41:06.031Z,7.13
2019-01-15T02:43:32.516Z,7.43
2019-01-15T02:45:59.031Z,7.23
2019-01-15T02:48:25.445Z,7.50
2019-01-15T02:50:51.862Z,7.50
2019-01-15T02:53:18.171Z,7.37
2019-01-15T02:55:44.570Z,7.40
2019-01-15T02:58:11.071Z,7.47
2019-01-15T03:00:37.554Z,8.00
2019-01-15T03:03:03.984Z,6.97
2019-01-15T03:05:30.380Z,7.23
2019-01-15T03:07:56.867Z,7.13
2019-01-15T03:10:23.362Z,7.53
2019-01-15T03:12:55.560Z,7.77
2019-01-15T03:15:19.965Z,7.50
2019-01-15T03:17:46.593Z,7.53
2019-01-15T03:20:15.984Z,8.80
2019-01-15T03:22:42.645Z,7.90
2019-01-15T03:25:09.617Z,7.70
2019-01-15T03:27:36.105Z,8.03
2019-01-15T03:30:10.726Z,8.03
2019-01-15T03:32:37.250Z,8.27
2019-01-15T03:35:05.506Z,7.90
2019-01-15T03:37:32.100Z,8.60
2019-01-15T03:39:58.520Z,7.90
2019-01-15T03:42:25.136Z,9.10
2019-01-15T03:44:51.947Z,8.47
2019-01-15T03:47:18.362Z,9.23
2019-01-15T03:49:44.744Z,9.60
2019-01-15T03:52:11.383Z,9.67
2019-01-15T03:54:37.958Z,9.80
2019-01-15T03:57:04.516Z,9.83
2019-01-15T03:59:31.124Z,10.20
2019-01-15T04:01:57.570Z,10.87
2019-01-15T04:04:24.079Z,10.57
2019-01-15T04:06:50.533Z,10.57
2019-01-15T04:09:16.931Z,11.33
2019-01-15T04:11:43.446Z,11.47
2019-01-15T04:14:09.741Z,10.67
2019-01-15T04:16:36.365Z,11.00
2019-01-15T04:19:03.079Z,11.57
2019-01-15T04:21:29.678Z,10.43
2019-01-15T04:23:56.079Z,10.37
2019-01-15T04:26:22.475Z,10.90
2019-01-15T04:28:48.891Z,11.43
2019-01-15T04:31:15.509Z,11.07
2019-01-15T04:33:42.000Z,11.07
2019-01-15T04:36:08.646Z,11.60
2019-01-15T04:38:34.915Z,11.07
2019-01-15T04:41:01.324Z,11.33
2019-01-15T04:43:27.925Z,11.57
2019-01-15T04:45:54.447Z,11.33
2019-01-15T04:48:21.722Z,11.00
2019-01-15T04:50:48.085Z,11.80
2019-01-15T04:53:14.490Z,11.43
2019-01-15T04:55:40.885Z,12.57
2019-01-15T04:58:07.268Z,11.77
2019-01-15T05:00:33.950Z,11.87
2019-01-15T05:03:01.104Z,12.50
2019-01-15T05:05:27.742Z,11.47
2019-01-15T05:07:54.202Z,11.90
2019-01-15T05:10:20.685Z,11.77
2019-01-15T05:12:47.305Z,12.10
2019-01-15T05:15:15.584Z,12.10
2019-01-15T05:17:42.180Z,11.57
2019-01-15T05:20:13.821Z,11.80
2019-01-15T05:22:40.636Z,11.00
2019-01-15T05:25:12.357Z,11.73
2019-01-15T05:27:38.772Z,11.50
2019-01-15T05:30:13.857Z,11.67
2019-01-15T05:32:40.233Z,11.57
2019-01-15T05:35:06.873Z,11.77
2019-01-15T05:37:33.264Z,11.53
2019-01-15T05:39:59.683Z,11.77
2019-01-15T05:42:26.369Z,11.30
2019-01-15T05:44:54.770Z,12.23
2019-01-15T05:47:23.175Z,10.40
2019-01-15T05:49:50.780Z,10.57
2019-01-15T05:52:17.520Z,10.13
2019-01-15T05:54:43.797Z,11.07
2019-01-15T05:57:10.391Z,12.17
2019-01-15T05:59:36.899Z,11.73
2019-01-15T06:02:03.535Z,11.43
2019-01-15T06:04:30.011Z,12.03
2019-01-15T06:06:56.529Z,12.33
2019-01-15T06:09:22.970Z,13.07
2019-01-15T06:11:49.469Z,12.57
2019-01-15T06:14:15.875Z,12.50
2019-01-15T06:16:42.261Z,12.40
2019-01-15T06:19:08.803Z,12.97
2019-01-15T06:21:35.092Z,13.53
2019-01-15T06:24:01.661Z,12.93
2019-01-15T06:26:28.270Z,13.33
2019-01-15T06:28:54.798Z,14.57
2019-01-15T06:31:21.414Z,14.07
2019-01-15T06:33:47.735Z,13.77
2019-01-15T06:36:14.177Z,13.43
2019-01-15T06:38:40.601Z,14.10
2019-01-15T06:41:07.057Z,14.13
2019-01-15T06:43:33.526Z,14.53
2019-01-15T06:46:00.240Z,14.83
2019-01-15T06:48:26.818Z,13.93
2019-01-15T06:50:53.338Z,13.57
2019-01-15T06:53:19.931Z,13.70
2019-01-15T06:55:46.569Z,13.40
2019-01-15T06:58:13.167Z,14.17
2019-01-15T07:00:39.591Z,14.20
2019-01-15T07:03:06.236Z,14.03
2019-01-15T07:05:32.637Z,14.47
2019-01-15T07:07:59.287Z,13.00
2019-01-15T07:10:32.499Z,12.60
2019-01-15T07:12:59.036Z,14.78
2019-01-15T07:15:25.527Z,13.40
2019-01-15T07:17:52.121Z,12.90
2019-01-15T07:20:18.806Z,12.67
2019-01-15T07:22:45.450Z,12.93
2019-01-15T07:25:16.604Z,13.23
2019-01-15T07:27:43.284Z,12.07
2019-01-15T07:30:18.021Z,12.20
2019-01-15T07:32:44.615Z,12.93
2019-01-15T07:35:11.318Z,12.97
2019-01-15T07:37:37.935Z,13.03
2019-01-15T07:40:11.245Z,13.33
2019-01-15T07:42:37.877Z,13.43
2019-01-15T07:45:09.611Z,14.17
2019-01-15T07:47:36.121Z,14.97
2019-01-15T07:50:07.852Z,14.67
2019-01-15T07:52:34.451Z,14.30
2019-01-15T07:55:01.060Z,16.37
2019-01-15T07:57:27.571Z,16.50
2019-01-15T07:59:53.955Z,17.00
2019-01-15T08:02:20.860Z,16.13
2019-01-15T08:04:47.385Z,16.63
2019-01-15T08:07:14.078Z,17.40
2019-01-15T08:09:40.497Z,17.47
2019-01-15T08:12:07.117Z,16.43
2019-01-15T08:14:33.795Z,17.17
2019-01-15T08:17:00.280Z,17.03
2019-01-15T08:19:26.791Z,16.10
2019-01-15T08:21:54.892Z,15.50
2019-01-15T08:24:21.727Z,15.80
2019-01-15T08:26:48.156Z,16.20
2019-01-15T08:29:14.490Z,15.57
2019-01-15T08:31:41.032Z,15.67
2019-01-15T08:34:07.409Z,15.67
2019-01-15T08:36:33.961Z,15.50
2019-01-15T08:39:00.552Z,14.23
2019-01-15T08:41:27.100Z,20.43
2019-01-15T08:43:53.495Z,14.70
2019-01-15T08:46:20.122Z,13.80
2019-01-15T08:48:46.745Z,13.80
2019-01-15T08:51:14.151Z,14.50
2019-01-15T08:53:41.332Z,13.60
2019-01-15T08:56:08.217Z,15.00
2019-01-15T08:58:34.707Z,15.53
2019-01-15T09:01:01.391Z,15.50
2019-01-15T09:03:27.911Z,15.77
2019-01-15T09:05:54.432Z,15.80
2019-01-15T09:08:21.102Z,15.60
2019-01-15T09:10:47.842Z,15.40
2019-01-15T09:13:14.552Z,16.67
2019-01-15T09:15:41.137Z,16.20
2019-01-15T09:18:07.765Z,16.27
2019-01-15T09:20:34.468Z,17.27
2019-01-15T09:23:01.032Z,17.17
2019-01-15T09:25:27.625Z,17.03
2019-01-15T09:27:54.192Z,17.93
2019-01-15T09:30:21.876Z,17.60
2019-01-15T09:32:48.625Z,18.43
2019-01-15T09:35:15.378Z,18.50
2019-01-15T09:37:42.798Z,18.77
2019-01-15T09:40:14.826Z,18.07
2019-01-15T09:42:41.227Z,18.83
2019-01-15T09:45:14.269Z,20.10
2019-01-15T09:47:42.567Z,19.83
2019-01-15T09:50:10.889Z,21.13
2019-01-15T09:52:37.502Z,21.77
2019-01-15T09:55:05.902Z,21.47
2019-01-15T09:57:32.417Z,22.03
2019-01-15T09:59:58.892Z,21.17
2019-01-15T10:02:25.437Z,21.13
2019-01-15T10:04:52.004Z,21.47
2019-01-15T10:07:18.512Z,21.73
2019-01-15T10:09:45.153Z,21.27
2019-01-15T10:12:11.687Z,20.93
2019-01-15T10:14:41.458Z,20.77
2019-01-15T10:17:06.998Z,19.43
2019-01-15T10:19:33.843Z,19.70
2019-01-15T10:22:00.343Z,19.70
2019-01-15T10:24:26.933Z,18.83
2019-01-15T10:26:55.016Z,19.17
2019-01-15T10:29:22.883Z,18.67
2019-01-15T10:32:27.871Z,19.00
2019-01-15T10:34:56.991Z,18.43
2019-01-15T10:37:23.618Z,17.70
2019-01-15T10:39:49.981Z,17.63
2019-01-15T10:42:16.523Z,16.17
2019-01-15T10:44:48.620Z,16.50
2019-01-15T10:47:11.525Z,16.27
2019-01-15T10:49:38.058Z,16.03
2019-01-15T10:52:04.722Z,15.20
2019-01-15T10:54:31.132Z,14.40
2019-01-15T10:56:57.795Z,14.70
2019-01-15T10:59:24.312Z,15.33
2019-01-15T11:01:50.757Z,15.47
2019-01-15T11:04:17.155Z,14.73
2019-01-15T11:06:43.699Z,15.47
2019-01-15T11:09:10.345Z,14.70
2019-01-15T11:11:36.849Z,15.23
2019-01-15T11:14:03.803Z,14.30
2019-01-15T11:16:30.331Z,14.97
2019-01-15T11:18:56.692Z,15.10
2019-01-15T11:21:23.203Z,15.23
2019-01-15T11:23:49.748Z,14.57
2019-01-15T11:26:16.338Z,15.13
2019-01-15T11:28:42.938Z,15.37
2019-01-15T11:31:09.472Z,15.23
2019-01-15T11:33:35.981Z,13.93
2019-01-15T11:36:02.796Z,15.00
2019-01-15T11:38:29.196Z,14.33
2019-01-15T11:40:55.792Z,13.77
2019-01-15T11:43:22.238Z,13.67
2019-01-15T11:45:48.776Z,13.20
2019-01-15T11:48:15.595Z,12.70
2019-01-15T11:50:42.222Z,12.90
2019-01-15T11:53:08.652Z,12.90
2019-01-15T11:55:35.453Z,12.20
2019-01-15T11:58:02.233Z,11.23
2019-01-15T12:00:37.499Z,11.47
2019-01-15T12:03:06.808Z,10.87
2019-01-15T12:05:51.814Z,11.37
2019-01-15T12:08:22.847Z,11.30
2019-01-15T12:10:57.272Z,11.47
2019-01-15T12:13:40.618Z,11.27
2019-01-15T12:16:25.504Z,11.63
2019-01-15T12:18:59.767Z,10.70
2019-01-15T12:21:28.232Z,10.27
2019-01-15T12:23:56.657Z,9.77
2019-01-15T12:26:31.147Z,9.83
2019-01-15T12:29:16.259Z,9.43
2019-01-15T12:32:01.418Z,9.40
2019-01-15T12:34:29.674Z,8.60
2019-01-15T12:37:14.659Z,8.50
2019-01-15T12:39:59.593Z,9.53
2019-01-15T12:42:36.727Z,8.80
2019-01-15T12:45:10.637Z,8.60
2019-01-15T12:47:44.739Z,9.63
2019-01-15T12:50:13.243Z,9.17
2019-01-15T12:52:58.319Z,9.07
2019-01-15T12:55:42.062Z,8.93
2019-01-15T12:58:16.256Z,8.13
2019-01-15T13:00:47.543Z,9.23
2019-01-15T13:03:18.617Z,8.47
2019-01-15T13:05:52.753Z,8.43
2019-01-15T13:08:39.222Z,8.30
2019-01-15T13:11:10.708Z,8.10
2019-01-15T13:13:54.192Z,8.27
2019-01-15T13:16:37.868Z,7.30
2019-01-15T13:19:09.652Z,7.33
2019-01-15T13:21:38.179Z,6.60
2019-01-15T13:24:07.667Z,6.70
2019-01-15T13:26:36.199Z,6.50
2019-01-15T13:29:21.414Z,7.17
2019-01-15T13:31:49.919Z,6.07
2019-01-15T13:34:21.344Z,6.30
2019-01-15T13:36:52.676Z,5.93
2019-01-15T13:39:29.905Z,6.37
2019-01-15T13:42:10.367Z,7.27
2019-01-15T13:44:38.928Z,6.13
2019-01-15T13:47:19.342Z,6.60
2019-01-15T13:49:53.754Z,6.80
2019-01-15T13:52:38.727Z,6.70
2019-01-15T13:55:24.501Z,6.47
2019-01-15T13:57:53.070Z,6.00
2019-01-15T14:00:21.532Z,6.03
2019-01-15T14:03:01.912Z,6.10
2019-01-15T14:05:46.962Z,5.93
2019-01-15T14:08:24.134Z,5.77
2019-01-15T14:10:52.727Z,6.00
2019-01-15T14:13:27.330Z,5.40
2019-01-15T14:16:04.967Z,6.63
2019-01-15T14:18:36.019Z,5.07
2019-01-15T14:21:10.860Z,6.03
2019-01-15T14:23:41.943Z,5.20
2019-01-15T14:26:16.554Z,5.80
2019-01-15T14:28:57.253Z,5.60
2019-01-15T14:31:28.643Z,5.30
2019-01-15T14:33:59.768Z,5.73
2019-01-15T14:36:30.928Z,5.20
2019-01-15T14:39:11.277Z,5.33
2019-01-15T14:41:48.734Z,5.53
2019-01-15T14:44:35.329Z,5.73
2019-01-15T14:47:03.879Z,5.27
2019-01-15T14:49:41.375Z,5.87
2019-01-15T14:52:12.690Z,5.53
2019-01-15T14:54:41.168Z,5.70
2019-01-15T14:57:15.570Z,5.70
2019-01-15T14:59:59.344Z,5.70
2019-01-15T15:02:42.835Z,5.37
2019-01-15T15:05:13.928Z,5.73
2019-01-15T15:07:54.309Z,5.27
2019-01-15T15:10:41.136Z,5.10
2019-01-15T15:13:12.289Z,5.83
2019-01-15T15:15:40.828Z,4.80
2019-01-15T15:18:24.532Z,5.40
2019-01-15T15:21:08.037Z,4.87
2019-01-15T15:23:36.520Z,5.23
2019-01-15T15:26:20.502Z,5.40
2019-01-15T15:28:51.784Z,5.53
2019-01-15T15:31:20.305Z,5.73
2019-01-15T15:34:05.490Z,5.60
2019-01-15T15:36:42.956Z,5.37
2019-01-15T15:39:11.637Z,5.40
2019-01-15T15:41:40.243Z,5.43
2019-01-15T15:44:11.299Z,5.27
2019-01-15T15:46:55.143Z,5.70
2019-01-15T15:49:26.168Z,5.03
2019-01-15T15:51:54.726Z,5.03
2019-01-15T15:54:39.939Z,5.40
2019-01-15T15:57:08.382Z,5.83
2019-01-15T15:59:39.549Z,4.97
2019-01-15T16:02:13.611Z,4.73
2019-01-15T16:04:45.063Z,5.47
2019-01-15T16:07:38.996Z,5.17
2019-01-15T16:10:29.871Z,6.17
2019-01-15T16:13:07.042Z,5.03
2019-01-15T16:15:38.678Z,5.60
2019-01-15T16:18:10.733Z,5.27
2019-01-15T16:20:39.239Z,5.67
2019-01-15T16:23:24.395Z,5.30
2019-01-15T16:25:55.904Z,5.53
2019-01-15T16:28:33.380Z,5.50
2019-01-15T16:31:07.539Z,5.23
2019-01-15T16:33:44.748Z,6.30
2019-01-15T16:36:15.818Z,6.23
2019-01-15T16:39:01.351Z,5.80
2019-01-15T16:41:30.093Z,5.47
2019-01-15T16:43:58.683Z,5.67
2019-01-15T16:46:43.851Z,5.83
2019-01-15T16:49:24.374Z,5.67
2019-01-15T16:51:58.696Z,5.23
2019-01-15T16:54:30.014Z,5.60
2019-01-15T16:57:04.512Z,5.40
2019-01-15T16:59:45.223Z,5.93
2019-01-15T17:02:25.779Z,5.40
2019-01-15T17:04:54.350Z,6.73
2019-01-15T17:07:31.658Z,5.43
2019-01-15T17:10:03.059Z,5.97
2019-01-15T17:12:34.745Z,6.27
2019-01-15T17:15:08.934Z,5.97
2019-01-15T17:17:49.539Z,5.80
2019-01-15T17:20:20.888Z,6.70
2019-01-15T17:23:06.122Z,5.97
2019-01-15T17:25:34.575Z,6.33
2019-01-15T17:28:03.189Z,6.67
2019-01-15T17:30:31.639Z,5.87
2019-01-15T17:33:04.411Z,6.07
2019-01-15T17:35:33.350Z,6.20
2019-01-15T17:38:07.735Z,7.07
2019-01-15T17:40:47.082Z,6.40
2019-01-15T17:43:24.617Z,6.70
2019-01-15T17:45:53.151Z,6.50
2019-01-15T17:48:27.224Z,6.77
2019-01-15T17:50:55.830Z,7.37
2019-01-15T17:53:28.644Z,7.50
2019-01-15T17:56:03.030Z,7.50
2019-01-15T17:58:31.779Z,7.13
2019-01-15T18:01:03.342Z,7.50
2019-01-15T18:03:40.819Z,7.77
2019-01-15T18:06:18.185Z,8.77
2019-01-15T18:08:58.835Z,8.40
2019-01-15T18:11:44.039Z,9.60
2019-01-15T18:14:27.188Z,9.13
2019-01-15T18:17:08.433Z,9.47
2019-01-15T18:19:46.258Z,9.87
2019-01-15T18:22:17.466Z,9.80
2019-01-15T18:24:52.015Z,10.43
2019-01-15T18:27:23.182Z,10.30
2019-01-15T18:29:54.550Z,8.90
2019-01-15T18:32:32.099Z,9.37
2019-01-15T18:35:00.948Z,10.53
2019-01-15T18:37:38.585Z,9.47
2019-01-15T18:40:17.299Z,10.00
2019-01-15T18:42:54.881Z,9.40
2019-01-15T18:45:29.273Z,9.70
2019-01-15T18:47:57.926Z,9.93
2019-01-15T18:50:26.608Z,9.03
2019-01-15T18:53:04.215Z,9.13
2019-01-15T18:55:32.968Z,8.70
2019-01-15T18:58:05.137Z,10.33
2019-01-15T19:00:45.694Z,10.07
2019-01-15T19:03:17.236Z,9.07
2019-01-15T19:06:04.085Z,10.27
2019-01-15T19:08:41.305Z,8.90
2019-01-15T19:11:10.474Z,9.37
2019-01-15T19:13:56.068Z,9.70
2019-01-15T19:16:42.849Z,8.53
2019-01-15T19:19:14.634Z,9.17
2019-01-15T19:21:43.243Z,9.93
2019-01-15T19:24:20.902Z,9.37
2019-01-15T19:26:55.374Z,8.53
2019-01-15T19:29:35.859Z,9.03
2019-01-15T19:32:10.434Z,8.80
2019-01-15T19:34:55.821Z,8.00
2019-01-15T19:37:24.496Z,8.77
2019-01-15T19:40:11.023Z,8.67
2019-01-15T19:42:39.813Z,8.60
2019-01-15T19:45:14.912Z,8.17
2019-01-15T19:47:43.770Z,8.30
2019-01-15T19:50:29.618Z,8.20
2019-01-15T19:53:04.252Z,8.63
2019-01-15T19:55:41.815Z,8.47
2019-01-15T19:58:10.851Z,8.20
2019-01-15T20:00:51.429Z,8.60
2019-01-15T20:03:22.533Z,8.40
2019-01-15T20:05:53.962Z,8.30
2019-01-15T20:08:25.847Z,7.77
2019-01-15T20:11:12.634Z,8.40
2019-01-15T20:13:46.915Z,8.53
2019-01-15T20:16:32.443Z,8.40
2019-01-15T20:19:18.323Z,8.07
2019-01-15T20:21:47.263Z,7.67
2019-01-15T20:24:18.835Z,8.90
2019-01-15T20:27:04.487Z,8.13
2019-01-15T20:29:48.346Z,8.10
2019-01-15T20:32:23.003Z,8.03
2019-01-15T20:34:57.823Z,8.07
2019-01-15T20:37:26.327Z,7.90
2019-01-15T20:40:00.966Z,8.17
2019-01-15T20:42:38.363Z,7.67
2019-01-15T20:45:28.623Z,7.97
2019-01-15T20:47:57.329Z,7.87
2019-01-15T20:50:31.695Z,7.20
2019-01-15T20:53:00.092Z,8.20
2019-01-15T20:55:38.139Z,8.07
2019-01-15T20:58:09.335Z,8.00
2019-01-15T21:00:38.103Z,7.87
2019-01-15T21:03:06.735Z,8.40
2019-01-15T21:05:38.307Z,8.00
2019-01-15T21:08:16.069Z,7.50
2019-01-15T21:10:50.495Z,7.97
2019-01-15T21:13:35.735Z,7.57
2019-01-15T21:16:16.370Z,8.10
2019-01-15T21:18:45.078Z,8.23
2019-01-15T21:21:22.620Z,8.23
2019-01-15T21:24:03.287Z,8.03
2019-01-15T21:26:46.801Z,7.37
2019-01-15T21:29:33.588Z,7.40
2019-01-15T21:32:10.836Z,7.97
2019-01-15T21:34:56.016Z,8.83
2019-01-15T21:37:24.594Z,7.83
2019-01-15T21:40:11.224Z,7.63
2019-01-15T21:42:40.041Z,8.17
2019-01-15T21:45:08.840Z,7.93
2019-01-15T21:47:43.268Z,7.80
2019-01-15T21:50:21.125Z,7.90
2019-01-15T21:53:06.171Z,8.00
2019-01-15T21:55:51.243Z,7.73
2019-01-15T21:58:25.545Z,7.57
2019-01-15T22:00:54.170Z,7.67
2019-01-15T22:03:41.487Z,8.30
2019-01-15T22:06:10.100Z,7.77
2019-01-15T22:08:41.647Z,7.97
2019-01-15T22:11:12.948Z,8.47
2019-01-15T22:13:41.299Z,7.60
2019-01-15T22:16:15.636Z,7.40
2019-01-15T22:18:50.255Z,8.10
2019-01-15T22:21:27.614Z,7.60
2019-01-15T22:23:58.959Z,8.07
2019-01-15T22:26:44.124Z,7.73
2019-01-15T22:29:12.724Z,8.13
2019-01-15T22:31:47.146Z,8.53
2019-01-15T22:34:18.522Z,8.40
2019-01-15T22:36:56.155Z,8.30
2019-01-15T22:39:41.347Z,8.50
2019-01-15T22:42:15.719Z,9.23
2019-01-15T22:44:44.356Z,9.40
2019-01-15T22:47:12.923Z,9.30
2019-01-15T22:49:56.508Z,10.13
2019-01-15T22:52:24.938Z,10.10
2019-01-15T22:55:09.799Z,10.37
2019-01-15T22:57:44.241Z,9.90
2019-01-15T23:00:40.938Z,9.27
2019-01-15T23:03:15.345Z,10.07
2019-01-15T23:05:59.319Z,10.30
2019-01-15T23:08:44.288Z,9.60
2019-01-15T23:11:12.854Z,10.63
2019-01-15T23:13:59.585Z,9.80
2019-01-15T23:16:28.140Z,10.20
2019-01-15T23:19:02.984Z,9.57
2019-01-15T23:21:40.814Z,9.87
2019-01-15T23:24:18.280Z,10.23
2019-01-15T23:26:46.760Z,10.00
2019-01-15T23:29:26.965Z,10.30
2019-01-15T23:31:58.060Z,10.57
2019-01-15T23:34:26.416Z,10.77
2019-01-15T23:37:06.963Z,10.77
2019-01-15T23:39:41.284Z,10.63
2019-01-15T23:42:15.785Z,11.40
2019-01-15T23:45:01.218Z,11.40
2019-01-15T23:47:32.523Z,11.67
2019-01-15T23:50:17.484Z,11.53
2019-01-15T23:52:45.939Z,11.27
2019-01-15T23:55:23.285Z,11.33
2019-01-15T23:57:54.663Z,11.43
